Time;durP1;ratioP1;P1;durP2;ratioP2;P2;SDS_P1;SDS_P2;PMS_P1;PMS_P2;Temp;Humidity;BMP_temperature;BMP_pressure;BME280_temperature;BME280_humidity;BME280_pressure;Samples;Min_cycle;Max_cycle;Signal;HPM_P1;HPM_P2
2022/06/10 00:00:03;;;;;;;3.45;1.60;;;;;;;25.73;50.34;100972.61;1770293;81;21061;-48
2022/06/10 00:02:32;;;;;;;3.80;1.80;;;;;;;25.74;50.35;100976.95;1771024;81;21027;-49
2022/06/10 00:04:59;;;;;;;2.87;1.90;;;;;;;25.76;50.50;100969.67;1768620;81;21015;-48
2022/06/10 00:07:33;;;;;;;3.12;1.60;;;;;;;25.77;50.41;100960.73;1767469;81;21011;-47
2022/06/10 00:09:55;;;;;;;3.92;1.90;;;;;;;25.78;50.39;100962.41;1758577;81;21082;-49
2022/06/10 00:12:22;;;;;;;2.70;1.60;;;;;;;25.78;50.46;100963.73;1765821;81;21104;-49
2022/06/10 00:14:50;;;;;;;1.62;1.52;;;;;;;25.79;50.45;100969.44;1769369;81;21027;-48
2022/06/10 00:17:17;;;;;;;3.85;1.90;;;;;;;25.80;50.59;100968.97;1770334;81;21511;-48
2022/06/10 00:19:45;;;;;;;2.27;2.02;;;;;;;25.79;50.51;100970.78;1764838;81;21046;-48
2022/06/10 00:22:12;;;;;;;2.12;1.82;;;;;;;25.79;50.51;100970.78;1767210;81;21490;-50
2022/06/10 00:24:38;;;;;;;3.72;1.55;;;;;;;25.77;50.54;100971.39;1767853;81;21015;-49
2022/06/10 00:27:05;;;;;;;1.82;1.70;;;;;;;25.77;50.43;100970.53;1768492;81;21085;-50
2022/06/10 00:29:32;;;;;;;1.90;1.70;;;;;;;25.76;50.40;100972.34;1767476;81;21010;-53
2022/06/10 00:31:59;;;;;;;4.22;1.90;;;;;;;25.74;50.13;100968.95;1767145;81;21566;-48
2022/06/10 00:34:27;;;;;;;1.92;1.80;;;;;;;25.67;50.14;100970.44;1767958;81;21021;-49
2022/06/10 00:36:54;;;;;;;3.67;2.17;;;;;;;25.66;50.24;100980.73;1768089;81;21463;-50
2022/06/10 00:39:21;;;;;;;4.87;1.50;;;;;;;25.66;50.24;100980.73;1768245;81;21011;-48
2022/06/10 00:41:48;;;;;;;1.98;1.80;;;;;;;25.62;50.83;100984.61;1764392;81;21046;-50
2022/06/10 00:44:44;;;;;;;3.15;1.50;;;;;;;25.62;50.83;100984.61;1767476;81;21078;-50
2022/06/10 00:47:21;;;;;;;4.55;1.90;;;;;;;25.59;51.20;100981.36;1769051;80;21070;-48
2022/06/10 00:49:53;;;;;;;5.40;1.87;;;;;;;25.56;51.43;100990.44;1778418;80;21010;-50
2022/06/10 00:52:26;;;;;;;;;;;;;;;25.49;51.77;100979.89;1778133;80;21022;-48
2022/06/10 00:54:53;;;;;;;4.00;2.10;;;;;;;25.48;52.06;100986.69;1782040;80;20092;-48
2022/06/10 00:57:25;;;;;;;8.50;2.33;;;;;;;25.43;52.50;100981.72;1785437;80;21070;-49
2022/06/10 01:00:13;;;;;;;3.00;1.75;;;;;;;25.38;52.80;100978.56;1728203;82;21103;-50
2022/06/10 01:02:40;;;;;;;2.92;1.95;;;;;;;25.35;53.23;100974.80;1724380;83;21084;-53
2022/06/10 01:05:14;;;;;;;3.35;1.72;;;;;;;25.30;53.01;100976.99;1715829;83;21008;-47
2022/06/10 01:07:46;;;;;;;2.98;1.77;;;;;;;25.25;53.15;100965.84;1728344;83;21032;-52
2022/06/10 01:10:14;;;;;;;2.02;1.62;;;;;;;25.20;53.18;100970.70;1728412;83;21043;-49
2022/06/10 01:12:57;;;;;;;3.33;1.80;;;;;;;25.17;53.34;100970.07;1728310;83;21016;-48
2022/06/10 01:15:39;;;;;;;;;;;;;;;25.14;53.42;100975.19;1730009;83;21047;-48
2022/06/10 01:18:28;;;;;;;1.50;1.40;;;;;;;25.10;53.18;100972.87;1728081;83;20141;-49
2022/06/10 01:21:30;;;;;;;3.10;2.10;;;;;;;25.02;53.02;100981.44;1706142;83;21545;-48
2022/06/10 01:24:35;;;;;;;2.92;1.70;;;;;;;24.98;53.28;100974.66;1655851;86;21077;-53
2022/06/10 01:27:48;;;;;;;2.67;2.05;;;;;;;24.93;53.49;100973.71;1602279;89;21046;-52
2022/06/10 01:30:23;;;;;;;3.47;1.77;;;;;;;24.91;53.97;100972.13;1602167;89;21541;-50
2022/06/10 01:33:31;;;;;;;3.33;1.92;;;;;;;24.90;54.27;100971.75;1599168;89;21567;-49
2022/06/10 01:36:24;;;;;;;4.28;2.02;;;;;;;24.89;54.59;100972.73;1597932;89;21614;-50
2022/06/10 01:39:24;;;;;;;2.65;1.80;;;;;;;24.88;54.64;100980.34;1602472;89;21030;-52
2022/06/10 01:42:02;;;;;;;2.02;1.65;;;;;;;24.86;54.77;100983.60;1586499;89;21014;-49
2022/06/10 01:44:40;;;;;;;2.00;1.90;;;;;;;24.86;55.03;100983.13;1589208;89;21084;-49
2022/06/10 01:47:41;;;;;;;3.85;2.12;;;;;;;24.85;55.17;100980.59;1581425;89;21142;-50
2022/06/10 01:50:35;;;;;;;2.98;1.80;;;;;;;24.85;55.42;100983.25;1580174;90;21581;-49
2022/06/10 01:53:21;;;;;;;4.55;2.15;;;;;;;24.83;55.44;100982.53;1433195;98;21188;-49
2022/06/10 01:55:53;;;;;;;4.37;1.90;;;;;;;24.83;55.44;100982.53;1432622;99;21149;-49
2022/06/10 01:58:40;;;;;;;5.60;2.30;;;;;;;24.86;54.98;100986.27;1435868;98;21565;-48
2022/06/10 02:01:19;;;;;;;5.28;2.47;;;;;;;24.86;54.98;100986.27;1419870;100;21167;-48
2022/06/10 02:04:03;;;;;;;3.58;1.90;;;;;;;24.86;54.48;100991.59;1437033;100;21146;-50
2022/06/10 02:06:36;;;;;;;2.15;1.95;;;;;;;24.86;54.01;100995.58;1436992;100;21134;-49
2022/06/10 02:09:09;;;;;;;2.20;1.47;;;;;;;24.85;53.57;100988.58;1437022;100;21098;-50
2022/06/10 02:11:38;;;;;;;2.65;1.70;;;;;;;24.85;53.57;100988.58;1436915;100;21629;-50
2022/06/10 02:14:17;;;;;;;4.37;2.02;;;;;;;24.81;53.74;100983.13;1436319;100;21602;-53
2022/06/10 02:16:46;;;;;;;2.33;1.80;;;;;;;24.82;54.07;100986.14;1436977;100;21134;-49
2022/06/10 02:19:18;;;;;;;3.42;1.75;;;;;;;24.81;54.23;100997.77;1454850;97;21084;-49
2022/06/10 02:21:53;;;;;;;4.28;1.60;;;;;;;24.81;53.99;100995.11;1375872;102;21157;-51
2022/06/10 02:24:29;;;;;;;3.12;1.55;;;;;;;24.81;53.99;100995.11;1366487;104;21678;-48
2022/06/10 02:27:00;;;;;;;3.00;2.05;;;;;;;24.81;53.86;101000.43;1366764;104;21110;-50
2022/06/10 02:29:35;;;;;;;3.12;1.55;;;;;;;24.81;53.42;101001.76;1372652;100;21711;-48
2022/06/10 02:32:04;;;;;;;4.55;1.85;;;;;;;24.77;53.20;101004.30;1429320;99;21158;-48
2022/06/10 02:34:32;;;;;;;3.45;2.00;;;;;;;24.77;53.20;101004.30;1430144;99;21133;-49
2022/06/10 02:37:22;;;;;;;2.55;1.50;;;;;;;24.76;52.92;101002.58;1431055;99;21089;-49
2022/06/10 02:40:00;;;;;;;5.30;1.50;;;;;;;24.75;53.31;101000.39;1443514;96;21632;-50
2022/06/10 02:42:47;;;;;;;1.70;1.60;;;;;;;24.75;53.31;101000.39;1466814;98;21101;-49
2022/06/10 02:45:31;;;;;;;4.50;1.70;;;;;;;24.77;53.23;101008.28;1468034;97;21584;-50
2022/06/10 02:48:06;;;;;;;2.15;1.55;;;;;;;24.79;53.08;101013.01;1407666;100;21140;-49
2022/06/10 02:50:33;;;;;;;4.00;1.87;;;;;;;24.78;52.93;101003.31;1404518;100;21133;-49
2022/06/10 02:53:00;;;;;;;3.75;1.80;;;;;;;24.77;52.89;101004.30;1391886;102;21140;-48
2022/06/10 02:55:27;;;;;;;3.33;2.00;;;;;;;24.76;52.96;101002.58;1407894;100;21664;-50
2022/06/10 03:01:13;;;;;;;3.27;2.02;;;;;;;24.79;53.39;101005.02;1447413;98;21116;-50
2022/06/10 03:04:07;;;;;;;4.03;2.05;;;;;;;24.83;53.35;101006.48;1447099;98;22840;-49
2022/06/10 03:07:00;;;;;;;5.20;1.82;;;;;;;24.83;53.35;101006.48;1447367;98;21153;-50
2022/06/10 03:09:47;;;;;;;3.05;1.87;;;;;;;24.83;53.68;101003.82;1447508;98;21101;-48
2022/06/10 03:12:52;;;;;;;5.15;1.92;;;;;;;24.82;53.37;101002.97;1458788;97;21619;-49
2022/06/10 03:15:43;;;;;;;2.22;1.92;;;;;;;24.82;53.37;101002.97;1425829;99;21093;-50
2022/06/10 03:18:48;;;;;;;5.65;1.70;;;;;;;24.81;53.28;101011.90;1490508;92;21098;-49
2022/06/10 03:21:52;;;;;;;4.62;2.00;;;;;;;24.80;53.38;101015.55;1552691;90;21066;-49
2022/06/10 03:24:27;;;;;;;4.58;1.80;;;;;;;24.81;53.52;101011.08;1542093;91;21152;-49
2022/06/10 03:27:05;;;;;;;3.02;2.00;;;;;;;24.80;53.76;101009.36;1554626;91;21080;-48
2022/06/10 03:29:40;;;;;;;3.12;1.98;;;;;;;24.80;53.76;101009.36;1500823;94;21149;-49
2022/06/10 03:32:31;;;;;;;4.78;1.90;;;;;;;24.83;54.08;101006.48;1501182;95;21106;-49
2022/06/10 03:35:06;;;;;;;6.72;2.15;;;;;;;24.87;54.28;101005.28;1503684;95;21112;-51
2022/06/10 03:37:33;;;;;;;4.10;1.72;;;;;;;24.90;54.18;101007.69;1521552;93;21093;-51
2022/06/10 03:40:00;;;;;;;4.45;1.70;;;;;;;24.94;54.20;101011.80;1523283;93;21630;-50
2022/06/10 03:42:27;;;;;;;5.47;1.85;;;;;;;24.97;54.36;101008.92;1523199;93;21089;-49
2022/06/10 03:44:56;;;;;;;4.42;1.72;;;;;;;25.04;54.25;101010.13;1502545;94;21647;-50
2022/06/10 03:47:28;;;;;;;4.67;1.90;;;;;;;25.12;53.95;101006.41;1504907;94;21135;-49
2022/06/10 03:50:09;;;;;;;4.12;2.40;;;;;;;25.12;53.95;101006.41;1472088;97;21655;-50
2022/06/10 03:52:37;;;;;;;4.95;1.60;;;;;;;25.16;54.08;101006.53;1476951;97;21588;-48
2022/06/10 03:55:07;;;;;;;3.33;1.90;;;;;;;25.19;54.04;101008.94;1472649;97;21668;-50
2022/06/10 03:57:34;;;;;;;2.95;2.00;;;;;;;25.24;54.21;101010.77;1473935;97;21195;-50
2022/06/10 04:00:02;;;;;;;3.98;1.90;;;;;;;25.24;54.21;101010.77;1474298;97;21091;-48
2022/06/10 04:02:30;;;;;;;4.67;2.00;;;;;;;25.27;53.91;101017.17;1506603;93;21071;-48
2022/06/10 04:04:57;;;;;;;3.62;1.50;;;;;;;25.26;53.24;101016.83;1530290;93;21150;-49
2022/06/10 04:07:25;;;;;;;5.30;1.98;;;;;;;25.31;53.09;101021.29;1501496;95;21162;-52
2022/06/10 04:09:52;;;;;;;6.78;2.60;;;;;;;25.31;53.09;101021.29;1521751;93;21104;-50
2022/06/10 04:12:21;;;;;;;2.95;1.87;;;;;;;25.36;53.38;101020.45;1498477;94;21116;-48
2022/06/10 04:14:49;;;;;;;3.08;1.95;;;;;;;25.38;53.44;101021.19;1549551;90;21573;-48
2022/06/10 04:17:17;;;;;;;2.85;1.92;;;;;;;25.40;53.52;101025.05;1568488;90;21057;-49
2022/06/10 04:19:44;;;;;;;4.37;2.02;;;;;;;25.46;53.39;101029.45;1569718;90;21069;-52
2022/06/10 04:22:11;;;;;;;2.42;2.00;;;;;;;25.46;53.39;101029.45;1576220;90;21080;-50
2022/06/10 04:24:38;;;;;;;6.22;1.92;;;;;;;25.48;53.31;101030.17;1576826;90;21114;-49
2022/06/10 04:27:06;;;;;;;2.95;1.50;;;;;;;25.50;53.46;101029.56;1675218;85;21049;-53
2022/06/10 04:29:33;;;;;;;3.87;1.85;;;;;;;25.54;53.42;101035.49;1681474;85;21077;-50
2022/06/10 04:32:00;;;;;;;2.45;1.87;;;;;;;25.56;53.50;101031.74;1689249;85;21046;-48
2022/06/10 04:34:27;;;;;;;3.40;1.72;;;;;;;25.62;53.49;101031.25;1689582;85;21022;-50
2022/06/10 04:36:53;;;;;;;5.65;2.05;;;;;;;25.64;53.09;101037.30;1689502;85;21542;-50
2022/06/10 04:39:20;;;;;;;2.40;1.65;;;;;;;25.77;52.52;101043.36;1681403;85;21106;-52
2022/06/10 04:41:47;;;;;;;1.80;1.52;;;;;;;25.77;52.52;101043.36;1689748;85;21494;-52
2022/06/10 04:44:14;;;;;;;3.40;1.70;;;;;;;25.88;52.05;101041.17;1681370;85;21018;-50
2022/06/10 04:46:42;;;;;;;3.42;1.77;;;;;;;25.88;52.05;101041.17;1696302;84;21051;-48
2022/06/10 04:49:09;;;;;;;3.98;1.60;;;;;;;25.92;51.73;101043.09;1702792;84;21042;-49
2022/06/10 04:51:37;;;;;;;2.92;1.67;;;;;;;25.98;51.56;101047.92;1703636;84;21047;-49
2022/06/10 04:54:06;;;;;;;4.05;1.90;;;;;;;26.06;50.71;101052.15;1702962;83;21106;-49
2022/06/10 04:56:33;;;;;;;4.65;1.65;;;;;;;26.06;50.71;101052.15;1753995;82;21034;-51
2022/06/10 04:59:00;;;;;;;2.58;1.90;;;;;;;26.04;49.99;101057.61;1737789;82;21504;-49
2022/06/10 05:01:27;;;;;;;5.67;2.33;;;;;;;26.06;49.95;101061.48;1739368;82;21031;-50
2022/06/10 05:03:55;;;;;;;2.90;1.70;;;;;;;26.07;50.05;101059.19;1752611;82;21554;-51
2022/06/10 05:06:22;;;;;;;2.15;1.77;;;;;;;26.06;50.02;101057.00;1737964;82;20983;-49
2022/06/10 05:08:51;;;;;;;4.62;1.98;;;;;;;26.05;49.67;101055.80;1740914;82;21038;-48
2022/06/10 05:11:18;;;;;;;3.67;1.65;;;;;;;26.03;49.74;101065.75;1739289;82;21018;-48
2022/06/10 05:13:46;;;;;;;4.97;1.52;;;;;;;26.03;49.61;101061.75;1750670;82;21014;-49
2022/06/10 05:16:13;;;;;;;3.77;1.52;;;;;;;26.02;49.52;101062.70;1744209;82;21030;-49
2022/06/10 05:18:40;;;;;;;4.87;1.75;;;;;;;26.03;49.65;101063.08;1740105;82;21069;-49
2022/06/10 05:21:10;;;;;;;2.87;1.65;;;;;;;26.10;49.90;101062.95;1748586;82;21030;-49
2022/06/10 05:23:37;;;;;;;2.45;1.80;;;;;;;26.23;49.66;101066.33;1744454;82;21105;-51
2022/06/10 05:26:03;;;;;;;2.72;1.40;;;;;;;26.38;49.31;101070.39;1740483;82;21518;-50
2022/06/10 05:28:30;;;;;;;5.22;1.60;;;;;;;26.53;48.85;101066.45;1743369;82;21022;-49
2022/06/10 05:30:57;;;;;;;2.33;1.50;;;;;;;26.68;48.82;101071.86;1738448;82;21081;-52
2022/06/10 05:34:44;;;;;;;3.10;1.90;;;;;;;26.82;48.18;101074.73;1738529;82;21502;-48
2022/06/10 05:35:54;;;;;;;3.30;1.45;;;;;;;26.92;47.92;101075.16;1740158;82;21072;-49
2022/06/10 05:38:21;;;;;;;3.12;1.60;;;;;;;26.99;47.56;101081.69;1733371;82;21053;-51
2022/06/10 05:40:48;;;;;;;3.60;1.65;;;;;;;27.02;47.55;101085.42;1741552;82;21070;-51
2022/06/10 05:43:14;;;;;;;5.00;1.92;;;;;;;27.04;47.64;101087.47;1743823;82;21045;-49
2022/06/10 05:45:42;;;;;;;2.60;1.82;;;;;;;27.04;47.83;101091.48;1748591;82;21030;-48
2022/06/10 05:48:09;;;;;;;5.67;1.65;;;;;;;27.04;48.00;101090.63;1775437;80;20987;-49
2022/06/10 05:50:39;;;;;;;3.15;1.60;;;;;;;27.04;47.88;101086.62;1773606;80;21482;-48
2022/06/10 05:53:10;;;;;;;3.72;1.72;;;;;;;27.02;47.96;101086.76;1771834;80;21542;-49
2022/06/10 05:55:38;;;;;;;3.15;1.60;;;;;;;27.02;47.98;101090.77;1772099;80;21487;-50
2022/06/10 05:58:05;;;;;;;3.92;1.90;;;;;;;27.03;47.85;101089.80;1771514;80;21042;-48
2022/06/10 06:00:33;;;;;;;1.95;1.75;;;;;;;27.06;47.93;101090.86;1778545;80;21023;-50
2022/06/10 06:03:01;;;;;;;3.50;1.60;;;;;;;27.07;47.94;101090.38;1769684;80;20999;-49
2022/06/10 06:05:28;;;;;;;9.98;2.10;;;;;;;27.09;48.17;101089.28;1772544;80;21479;-49
2022/06/10 06:07:57;;;;;;;2.55;1.65;;;;;;;27.16;48.11;101096.28;1782913;80;21021;-50
2022/06/10 06:10:26;;;;;;;4.05;1.50;;;;;;;27.19;48.15;101091.52;1776573;80;20991;-49
2022/06/10 06:12:53;;;;;;;4.08;1.57;;;;;;;27.24;47.88;101095.96;1781938;80;20963;-51
2022/06/10 06:15:20;;;;;;;3.62;2.33;;;;;;;27.28;47.60;101094.75;1773679;80;20966;-48
2022/06/10 06:17:51;;;;;;;2.65;1.75;;;;;;;27.33;47.83;101086.31;1770223;80;21018;-50
2022/06/10 06:20:20;;;;;;;6.80;1.62;;;;;;;27.38;47.77;101098.35;1769109;80;20991;-51
2022/06/10 06:22:47;;;;;;;2.42;1.45;;;;;;;27.48;47.78;101090.86;1783064;80;21018;-49
2022/06/10 06:25:17;;;;;;;5.85;1.85;;;;;;;27.64;47.91;101092.55;1774331;80;21019;-50
2022/06/10 06:27:44;;;;;;;2.65;1.87;;;;;;;27.84;47.35;101088.98;1776547;80;20983;-49
2022/06/10 06:30:20;;;;;;;3.35;1.82;;;;;;;28.07;46.95;101102.03;1776012;80;21053;-49
2022/06/10 06:32:47;;;;;;;3.08;1.80;;;;;;;28.29;46.55;101096.95;1712409;82;21026;-54
2022/06/10 06:35:15;;;;;;;4.45;2.05;;;;;;;28.46;45.93;101102.94;1709121;82;21588;-49
2022/06/10 06:37:44;;;;;;;2.60;1.70;;;;;;;28.59;45.49;101098.20;1707589;82;20994;-50
2022/06/10 06:40:12;;;;;;;3.08;1.60;;;;;;;28.68;45.32;101093.36;1706439;82;21125;-51
2022/06/10 06:42:39;;;;;;;4.37;1.85;;;;;;;28.74;44.77;101092.80;1707193;82;20986;-50
2022/06/10 06:45:09;;;;;;;3.05;1.60;;;;;;;28.77;44.49;101088.98;1717527;83;21042;-50
2022/06/10 06:47:35;;;;;;;4.03;1.70;;;;;;;28.76;44.54;101081.44;1685463;83;21528;-48
2022/06/10 06:50:04;;;;;;;2.95;1.95;;;;;;;28.73;44.43;101087.06;1639643;85;21574;-49
2022/06/10 06:52:30;;;;;;;4.72;1.75;;;;;;;28.68;44.36;101084.47;1659984;84;21104;-49
2022/06/10 06:54:57;;;;;;;3.58;1.70;;;;;;;28.60;44.56;101086.52;1661967;84;21063;-50
2022/06/10 06:57:26;;;;;;;2.83;1.70;;;;;;;28.55;44.75;101087.39;1661741;84;21071;-52
2022/06/10 06:59:53;;;;;;;3.52;1.82;;;;;;;28.49;44.82;101087.95;1661113;86;21556;-49
2022/06/10 07:02:21;;;;;;;2.62;1.67;;;;;;;28.41;44.78;101091.83;1664856;86;21056;-48
2022/06/10 07:04:48;;;;;;;3.67;1.50;;;;;;;28.33;44.69;101089.00;1657334;84;21567;-49
2022/06/10 07:07:15;;;;;;;2.72;1.57;;;;;;;28.25;44.92;101094.20;1662076;84;21072;-48
2022/06/10 07:09:44;;;;;;;1.55;1.45;;;;;;;28.18;45.24;101098.40;1670889;84;21024;-49
2022/06/10 07:12:12;;;;;;;1.52;1.22;;;;;;;28.10;45.33;101096.42;1660162;84;21608;-49
2022/06/10 07:14:40;;;;;;;4.95;1.70;;;;;;;28.04;45.54;101090.77;1664187;86;21099;-48
2022/06/10 07:17:06;;;;;;;5.90;1.80;;;;;;;28.00;45.77;101094.70;1660060;84;21127;-49
2022/06/10 07:19:35;;;;;;;2.87;1.50;;;;;;;27.97;45.72;101094.95;1660929;86;21024;-51
2022/06/10 07:22:03;;;;;;;2.62;1.50;;;;;;;27.93;45.75;101094.36;1662611;84;21067;-50
2022/06/10 07:24:30;;;;;;;2.50;1.52;;;;;;;27.90;46.10;101091.12;1663054;84;21075;-51
2022/06/10 07:27:00;;;;;;;2.22;1.70;;;;;;;27.90;46.39;101093.80;1662792;84;21111;-51
2022/06/10 07:29:27;;;;;;;2.85;1.62;;;;;;;27.92;46.42;101093.17;1694307;83;21078;-50
2022/06/10 07:31:54;;;;;;;7.05;1.98;;;;;;;27.92;45.73;101097.17;1723462;83;21034;-49
2022/06/10 07:34:21;;;;;;;4.17;1.55;;;;;;;27.91;45.95;101096.33;1719908;83;21101;-48
2022/06/10 07:36:48;;;;;;;2.62;1.50;;;;;;;27.92;46.01;101098.03;1722919;83;21013;-50
2022/06/10 07:39:15;;;;;;;2.05;1.40;;;;;;;27.96;46.19;101102.16;1721047;83;21073;-48
2022/06/10 07:41:57;;;;;;;2.45;1.50;;;;;;;28.01;46.19;101102.58;1721617;83;21049;-52
2022/06/10 07:44:24;;;;;;;2.05;1.60;;;;;;;28.04;46.17;101102.32;1727060;83;21054;-50
2022/06/10 07:46:53;;;;;;;2.72;1.42;;;;;;;28.10;45.75;101104.93;1717287;83;21094;-48
2022/06/10 07:49:21;;;;;;;2.45;1.45;;;;;;;28.13;45.77;101107.34;1713045;83;21110;-49
2022/06/10 07:51:48;;;;;;;2.02;1.60;;;;;;;28.20;45.77;101115.16;1713219;83;21054;-49
2022/06/10 07:54:15;;;;;;;3.50;1.75;;;;;;;28.28;45.96;101112.64;1713120;83;21042;-49
2022/06/10 07:56:42;;;;;;;2.20;1.60;;;;;;;28.38;45.64;101110.83;1713107;83;21022;-51
2022/06/10 07:59:09;;;;;;;2.52;1.50;;;;;;;28.48;45.65;101111.68;1714171;83;21564;-49
2022/06/10 08:01:37;;;;;;;2.90;1.55;;;;;;;28.55;45.30;101108.81;1716326;83;21026;-50
2022/06/10 08:04:06;;;;;;;1.80;1.40;;;;;;;28.61;45.07;101106.94;1714101;83;21058;-49
2022/06/10 08:06:34;;;;;;;3.17;1.70;;;;;;;28.67;44.98;101107.72;1713232;83;21018;-48
2022/06/10 08:09:01;;;;;;;4.42;1.87;;;;;;;28.73;44.86;101108.48;1714002;83;20999;-49
2022/06/10 08:11:30;;;;;;;3.15;1.87;;;;;;;28.79;44.89;101113.28;1716275;83;21069;-50
2022/06/10 08:13:58;;;;;;;5.78;1.60;;;;;;;28.86;45.01;101102.37;1714345;83;21043;-48
2022/06/10 08:16:25;;;;;;;3.77;1.90;;;;;;;28.91;44.12;101108.13;1708982;83;21563;-47
2022/06/10 08:18:52;;;;;;;4.30;1.62;;;;;;;28.97;44.12;101108.89;1756776;82;21007;-50
2022/06/10 08:24:06;;;;;;;2.33;1.80;;;;;;;29.13;43.89;101115.52;1756849;82;21027;-52
2022/06/10 08:26:34;;;;;;;2.65;1.50;;;;;;;29.21;43.03;101112.98;1755904;82;20999;-50
2022/06/10 08:29:03;;;;;;;2.25;1.12;;;;;;;29.22;42.81;101116.03;1756519;82;21070;-50
2022/06/10 08:31:31;;;;;;;3.05;1.45;;;;;;;29.23;42.84;101111.01;1756447;82;21007;-47
2022/06/10 08:33:58;;;;;;;20.92;2.00;;;;;;;29.25;42.99;101111.71;1756463;82;20995;-49
2022/06/10 08:36:26;;;;;;;3.12;1.27;;;;;;;29.27;42.73;101104.37;1756382;82;20995;-47
2022/06/10 08:38:53;;;;;;;4.75;1.30;;;;;;;29.30;42.74;101109.45;1756385;82;20971;-49
2022/06/10 08:41:38;;;;;;;2.58;1.30;;;;;;;29.33;42.14;101115.36;1756800;82;20996;-50
2022/06/10 08:44:27;;;;;;;2.87;1.60;;;;;;;29.33;41.94;101115.85;1754491;82;20999;-49
2022/06/10 08:47:33;;;;;;;4.65;1.32;;;;;;;29.30;41.92;101112.14;1753770;82;21011;-51
2022/06/10 08:50:30;;;;;;;1.80;1.27;;;;;;;29.32;41.91;101118.20;1764160;81;21054;-53
2022/06/10 08:53:24;;;;;;;2.12;1.60;;;;;;;29.37;42.04;101120.78;1628947;87;21081;-48
2022/06/10 08:56:22;;;;;;;1.50;1.40;;;;;;;29.44;41.72;101119.72;1627034;88;21105;-48
2022/06/10 08:59:16;;;;;;;4.65;2.05;;;;;;;29.51;41.49;101123.52;1621095;86;21027;-50
2022/06/10 09:01:55;;;;;;;2.15;1.30;;;;;;;29.58;41.41;101127.29;1619863;88;21168;-53
2022/06/10 09:04:44;;;;;;;1.87;1.17;;;;;;;29.64;41.20;101132.06;1559227;91;21037;-50
2022/06/10 09:07:21;;;;;;;1.90;1.67;;;;;;;29.68;41.37;101128.09;1567465;90;21078;-48
2022/06/10 09:09:48;;;;;;;1.67;1.47;;;;;;;29.70;41.00;101128.80;1505433;93;21095;-48
2022/06/10 09:13:13;;;;;;;1.45;1.22;;;;;;;29.71;40.97;101130.50;1515005;94;21132;-47
2022/06/10 09:15:51;;;;;;;1.45;1.30;;;;;;;29.74;40.83;101130.22;1504920;94;21569;-48
2022/06/10 09:18:28;;;;;;;1.90;1.37;;;;;;;29.82;40.84;101128.17;1491968;95;21053;-50
2022/06/10 09:21:16;;;;;;;1.45;1.25;;;;;;;29.86;40.90;101122.86;1445843;98;21125;-49
2022/06/10 09:23:44;;;;;;;1.65;1.52;;;;;;;29.89;40.67;101123.39;1419310;101;21151;-50
2022/06/10 09:26:17;;;;;;;2.87;1.60;;;;;;;29.95;40.66;101128.66;1421643;100;21651;-47
2022/06/10 09:28:45;;;;;;;2.05;1.60;;;;;;;29.98;40.20;101125.20;1421524;99;21110;-50
2022/06/10 09:31:34;;;;;;;3.67;1.60;;;;;;;30.01;40.60;101132.94;1428152;98;21726;-47
2022/06/10 09:34:21;;;;;;;2.90;2.17;;;;;;;30.03;40.52;101130.95;1429718;100;21104;-46
2022/06/10 09:37:19;;;;;;;3.12;1.40;;;;;;;30.05;40.51;101128.10;1431584;99;21162;-49
2022/06/10 09:43:38;;;;;;;3.62;1.50;;;;;;;30.05;40.38;101131.64;1495314;96;21247;-51
2022/06/10 09:46:39;;;;;;;1.50;1.40;;;;;;;30.05;40.34;101133.47;1495142;95;21117;-50
2022/06/10 09:49:26;;;;;;;2.05;1.50;;;;;;;30.01;40.49;101132.94;1559722;90;21572;-49
2022/06/10 09:52:21;;;;;;;2.92;1.70;;;;;;;30.02;40.52;101131.95;1549799;90;21187;-49
2022/06/10 09:55:40;;;;;;;1.85;1.62;;;;;;;30.02;40.65;101134.64;1550434;90;21045;-49
2022/06/10 09:58:41;;;;;;;2.12;1.62;;;;;;;30.04;40.82;101137.17;1566322;88;21090;-48
2022/06/10 10:01:41;;;;;;;6.03;1.82;;;;;;;30.06;40.55;101141.89;1609629;88;21093;-51
2022/06/10 10:04:42;;;;;;;3.07;1.70;;;;;;;30.04;40.41;101144.73;1609537;88;21057;-48
2022/06/10 10:07:33;;;;;;;2.35;1.55;;;;;;;30.00;40.64;101150.05;1609538;88;21041;-50
2022/06/10 10:10:31;;;;;;;3.62;1.92;;;;;;;29.98;40.64;101152.03;1578226;91;21072;-50
2022/06/10 10:13:29;;;;;;;2.05;1.87;;;;;;;29.98;40.94;101151.18;1567589;90;21153;-49
2022/06/10 10:16:27;;;;;;;2.27;1.55;;;;;;;30.00;40.64;101156.75;1542496;92;21084;-53
2022/06/10 10:19:17;;;;;;;2.55;1.65;;;;;;;30.03;40.51;101161.81;1577186;89;21537;-50
2022/06/10 10:22:31;;;;;;;1.75;1.60;;;;;;;30.01;40.54;101164.28;1577576;90;21069;-49
2022/06/10 10:24:58;;;;;;;2.80;1.50;;;;;;;29.97;40.88;101157.52;1580295;90;21095;-49
2022/06/10 10:27:31;;;;;;;1.52;1.40;;;;;;;29.96;40.89;101161.22;1579278;90;21125;-49
2022/06/10 10:30:21;;;;;;;4.10;1.72;;;;;;;29.95;40.70;101156.83;1543738;91;21020;-51
2022/06/10 10:32:55;;;;;;;2.90;1.72;;;;;;;29.93;40.84;101156.98;1552526;90;21067;-49
2022/06/10 10:35:27;;;;;;;2.05;1.60;;;;;;;29.91;41.07;101149.58;1505812;94;21065;-48
2022/06/10 10:38:00;;;;;;;2.90;1.57;;;;;;;29.89;41.20;101154.25;1489187;95;21195;-48
2022/06/10 10:40:39;;;;;;;2.47;1.92;;;;;;;29.88;41.10;101155.25;1491036;95;21564;-50
2022/06/10 10:43:14;;;;;;;1.98;1.65;;;;;;;29.90;41.17;101158.64;1486230;95;21183;-50
2022/06/10 10:46:04;;;;;;;3.45;2.00;;;;;;;29.92;40.84;101160.67;1492019;95;21673;-51
2022/06/10 10:48:38;;;;;;;2.35;1.70;;;;;;;29.91;40.73;101156.77;1388449;103;21209;-48
2022/06/10 10:51:16;;;;;;;1.50;1.30;;;;;;;29.85;40.80;101152.85;1361808;105;21211;-50
2022/06/10 10:56:32;;;;;;;2.30;1.40;;;;;;;29.89;40.90;101155.59;1406736;101;21194;-49
2022/06/10 10:59:00;;;;;;;1.80;1.50;;;;;;;29.93;41.04;101151.61;1383767;102;21141;-51
2022/06/10 11:01:44;;;;;;;1.80;1.62;;;;;;;29.95;41.14;101151.45;1384015;104;21172;-51
2022/06/10 11:04:33;;;;;;;1.80;1.47;;;;;;;30.00;41.04;101156.75;1384018;104;21148;-48
2022/06/10 11:07:09;;;;;;;2.65;1.60;;;;;;;30.04;40.93;101156.80;1399801;100;21207;-48
2022/06/10 11:09:50;;;;;;;2.33;1.60;;;;;;;30.08;40.79;101152.83;1397515;102;21124;-48
2022/06/10 11:12:26;;;;;;;3.00;1.75;;;;;;;30.12;40.77;101152.88;1400174;101;21168;-48
2022/06/10 11:15:03;;;;;;;4.78;2.02;;;;;;;30.13;40.63;101146.50;1399988;101;21182;-49
2022/06/10 11:17:30;;;;;;;2.42;1.65;;;;;;;30.16;40.62;101144.02;1379942;103;21146;-49
2022/06/10 11:20:26;;;;;;;;;;;;;;;;;;;;;
2022/06/10 11:23:24;;;;;;;1.32;1.22;;;;;;;30.21;40.67;101135.85;1323863;108;21609;-51
2022/06/10 11:26:54;;;;;;;3.05;1.67;;;;;;;30.23;40.60;101131.70;1318031;107;21755;-50
2022/06/10 11:29:21;;;;;;;1.95;1.55;;;;;;;30.26;40.79;101131.38;1306282;109;21163;-51
2022/06/10 11:32:04;;;;;;;1.90;1.52;;;;;;;30.26;40.82;101132.23;1307532;109;21221;-50
2022/06/10 11:34:40;;;;;;;2.55;1.40;;;;;;;30.29;40.93;101132.44;1350107;105;21187;-50
2022/06/10 11:37:32;;;;;;;2.92;1.47;;;;;;;30.30;40.89;101129.63;1333361;108;21215;-48
2022/06/10 11:40:19;;;;;;;2.43;1.50;;;;;;;30.34;41.01;101132.84;1334090;108;21205;-51
2022/06/10 11:42:59;;;;;;;;;;;;;;;;;;;;;
2022/06/10 11:45:38;;;;;;;3.37;1.42;;;;;;;30.41;41.10;101129.92;1316726;107;21719;-48
2022/06/10 11:48:37;;;;;;;2.50;1.47;;;;;;;30.44;41.04;101125.08;1344631;106;21126;-48
2022/06/10 11:51:29;;;;;;;2.90;1.50;;;;;;;30.44;41.03;101130.45;1363494;105;21183;-50
2022/06/10 11:54:19;;;;;;;4.35;1.62;;;;;;;30.46;40.98;101133.83;1363261;105;21112;-52
2022/06/10 12:00:09;;;;;;;2.72;1.60;;;;;;;30.48;40.83;101134.52;1379786;103;21119;-49
2022/06/10 12:02:49;;;;;;;1.52;1.42;;;;;;;30.48;40.76;101137.20;1387775;102;21151;-47
2022/06/10 12:05:59;;;;;;;2.42;1.50;;;;;;;30.49;40.82;101138.91;1396373;102;21112;-48
2022/06/10 12:08:44;;;;;;;2.15;1.47;;;;;;;30.49;40.78;101134.87;1410255;100;21150;-48
2022/06/10 12:11:16;;;;;;;3.08;1.65;;;;;;;30.51;40.79;101142.28;1390325;101;22671;-47
2022/06/10 12:13:49;;;;;;;2.05;1.40;;;;;;;30.51;40.91;101139.60;1382085;99;21192;-49
2022/06/10 12:16:16;;;;;;;1.60;1.50;;;;;;;30.52;40.86;101143.96;1416339;100;21139;-47
2022/06/10 12:18:48;;;;;;;3.30;1.80;;;;;;;30.53;40.56;101130.89;1428158;99;21622;-49
2022/06/10 12:21:21;;;;;;;2.05;1.32;;;;;;;30.54;40.70;101136.59;1428470;99;21644;-49